EW5463 Weather Reports


Display with metric or nautical units.
time (UTC)temp
F
wind
direction
speed
MPH
gust
MPH
rain 1hr
in
rain 24hr
in
rain mn
in
humidity
%
barometer
mb
20260506101545 64 0 0.0 0.0 0.00 0.00 0.00 81 1014.3
20260506100042 65 0 0.0 0.0 0.00 0.00 0.00 80 1014.4
20260506094554 65 0 0.0 3.0 0.00 0.00 0.00 79 1014.4
20260506093040 65 0 0.0 0.0 0.00 0.00 0.00 79 1014.5
20260506091540 65 0 0.0 3.0 0.00 0.00 0.00 78 1014.5
20260506090045 65 0 1.0 4.0 0.00 0.00 0.00 77 1014.7
20260506084545 65 0 0.0 0.0 0.00 0.00 0.00 77 1014.9
20260506083042 65 0 0.0 0.0 0.00 0.00 0.00 77 1014.9
20260506081545 65 0 0.0 0.0 0.00 0.00 0.00 78 1014.7
20260506073043 65 0 0.0 0.0 0.00 0.00 0.00 77 1014.7
20260506071545 65 0 0.0 0.0 0.00 0.00 0.00 76 1014.6
20260506061545 66 0 0.0 0.0 0.00 0.00 0.00 74 1015.1
20260506044547 68 270 1.0 4.0 0.00 0.00 0.00 69 1015.6
20260506043043 68 270 1.0 4.0 0.00 0.00 0.00 68 1015.7
20260506041541 68 270 1.0 4.0 0.00 0.00 0.00 68 1015.9
20260506040049 68 270 2.0 5.0 0.00 0.00 0.00 68 1015.8
20260506034543 69 270 2.0 5.0 0.00 0.00 0.00 68 1015.7
20260506033043 69 270 3.0 9.0 0.00 0.00 0.00 67 1015.6
20260506031550 69 270 3.0 6.0 0.00 0.00 0.00 67 1015.8
20260506030044 70 270 3.0 5.0 0.00 0.00 0.00 66 1016.1
20260506024553 70 270 3.0 5.0 0.00 0.00 0.00 65 1016.2
20260506023044 71 270 2.0 6.0 0.00 0.00 0.00 64 1016.5
20260506021542 71 270 3.0 6.0 0.00 0.00 0.00 62 1016.0
20260506020045 72 270 3.0 6.0 0.00 0.00 0.00 60 1015.6
20260506014544 72 270 3.0 6.0 0.00 0.00 0.00 58 1015.3
20260506013043 73 270 3.0 8.0 0.00 0.00 0.00 55 1015.1
20260506011544 74 270 3.0 6.0 0.00 0.00 0.00 55 1014.9
20260506010048 74 270 4.0 8.0 0.00 0.00 0.00 54 1014.7
20260506004543 75 270 3.0 8.0 0.00 0.00 0.00 53 1014.4
20260506003042 76 270 3.0 5.0 0.00 0.00 0.00 52 1014.2
20260506001542 77 270 3.0 5.0 0.00 0.00 0.00 50 1014.1
20260506000042 78 270 4.0 6.0 0.00 0.00 0.00 47 1014.1
20260505234550 79 270 2.0 4.0 0.00 0.00 0.00 45 1014.0
20260505233042 79 270 1.0 4.0 0.00 0.00 0.00 43 1014.0
20260505231552 80 270 1.0 5.0 0.00 0.00 0.00 41 1013.8
20260505230053 80 270 2.0 6.0 0.00 0.00 0.00 41 1013.9
20260505224547 81 270 2.0 5.0 0.00 0.00 0.00 41 1014.0
20260505223053 81 270 3.0 5.0 0.00 0.00 0.00 39 1014.2
20260505221549 81 270 1.0 4.0 0.00 0.00 0.00 37 1014.3
20260505220046 82 270 2.0 11.0 0.00 0.00 0.00 38 1014.1
20260505214544 82 270 2.0 8.0 0.00 0.00 0.00 37 1014.3
20260505213056 82 270 3.0 9.0 0.00 0.00 0.00 39 1014.2
20260505211548 82 270 2.0 6.0 0.00 0.00 0.00 38 1014.2
20260505210043 83 270 1.0 4.0 0.00 0.00 0.00 38 1014.6
20260505204542 83 270 2.0 8.0 0.00 0.00 0.00 39 1014.6
20260505203046 83 270 5.0 10.0 0.00 0.00 0.00 39 1014.6
20260505201548 84 270 2.0 5.0 0.00 0.00 0.00 35 1014.7
20260505200052 84 270 2.0 6.0 0.00 0.00 0.00 36 1014.9
20260505194546 84 270 1.0 11.0 0.00 0.00 0.00 38 1015.1
20260505193043 84 270 3.0 10.0 0.00 0.00 0.00 37 1015.3
20260505191606 84 270 3.0 8.0 0.00 0.00 0.00 37 1015.7
20260505190049 85 270 3.0 8.0 0.00 0.00 0.00 36 1015.6
20260505184551 85 270 2.0 5.0 0.00 0.00 0.00 37 1015.7
20260505183043 86 270 1.0 10.0 0.00 0.00 0.00 35 1015.9
20260505181542 85 270 4.0 9.0 0.00 0.00 0.00 36 1016.0
20260505180059 86 270 4.0 9.0 0.00 0.00 0.00 36 1016.0
20260505174554 84 270 2.0 8.0 0.00 0.00 0.00 38 1016.1
20260505173041 83 270 4.0 9.0 0.00 0.00 0.00 35 1016.2
20260505171548 83 270 1.0 9.0 0.00 0.00 0.00 40 1016.2
20260505170043 83 270 2.0 6.0 0.00 0.00 0.00 41 1016.7
20260505164543 82 270 2.0 8.0 0.00 0.00 0.00 43 1017.0
20260505163040 80 270 3.0 8.0 0.00 0.00 0.00 47 1017.1
20260505161540 79 270 2.0 8.0 0.00 0.00 0.00 48 1017.3
20260505153042 77 270 2.0 5.0 0.00 0.00 0.00 53 1017.4
20260505151543 77 270 1.0 4.0 0.00 0.00 0.00 53 1017.5
20260505124550 61 0 0.0 0.0 0.00 0.00 0.00 91 1017.4
20260505123047 58 0 0.0 0.0 0.00 0.00 0.00 93 1017.2
20260505121544 56 0 0.0 0.0 0.00 0.00 0.00 93 1017.1
20260505120043 55 0 0.0 0.0 0.00 0.00 0.00 92 1017.0
20260505114543 54 0 0.0 0.0 0.00 0.00 0.00 92 1017.1
20260505113050 53 0 0.0 0.0 0.00 0.00 0.00 91 1017.1
20260505111540 53 0 0.0 0.0 0.00 0.00 0.00 90 1016.8